createdAt,value
2023-04-14T00:01:36.440Z,8.56
2023-04-14T00:04:06.039Z,8.46
2023-04-14T00:06:34.015Z,8.37
2023-04-14T00:09:02.108Z,8.60
2023-04-14T00:11:30.211Z,8.71
2023-04-14T00:13:58.370Z,8.24
2023-04-14T00:16:26.209Z,7.95
2023-04-14T00:18:54.135Z,7.98
2023-04-14T00:21:23.361Z,8.03
2023-04-14T00:23:51.825Z,8.05
2023-04-14T00:26:19.774Z,8.13
2023-04-14T00:28:47.741Z,8.12
2023-04-14T00:31:17.335Z,8.06
2023-04-14T00:33:45.263Z,7.94
2023-04-14T00:36:13.087Z,7.93
2023-04-14T00:38:42.294Z,8.12
2023-04-14T00:41:10.182Z,8.18
2023-04-14T00:43:38.096Z,7.72
2023-04-14T00:46:07.009Z,7.58
2023-04-14T00:48:35.691Z,7.78
2023-04-14T00:51:04.834Z,7.39
2023-04-14T00:53:33.299Z,7.38
2023-04-14T00:56:02.667Z,7.63
2023-04-14T00:58:31.581Z,7.57
2023-04-14T01:00:59.511Z,7.64
2023-04-14T01:03:27.620Z,7.74
2023-04-14T01:05:56.369Z,7.39
2023-04-14T01:08:25.043Z,6.95
2023-04-14T01:11:03.011Z,7.04
2023-04-14T01:13:42.197Z,6.77
2023-04-14T01:16:19.060Z,6.52
2023-04-14T01:18:54.592Z,6.92
2023-04-14T01:21:29.641Z,7.34
2023-04-14T01:24:14.903Z,7.41
2023-04-14T01:26:46.982Z,6.57
2023-04-14T01:29:38.041Z,6.78
2023-04-14T01:32:10.588Z,6.62
2023-04-14T01:34:44.740Z,6.52
2023-04-14T01:37:16.768Z,6.64
2023-04-14T01:39:51.110Z,6.54
2023-04-14T01:42:24.302Z,6.36
2023-04-14T01:44:58.215Z,6.70
2023-04-14T01:47:29.921Z,5.84
2023-04-14T01:50:02.107Z,5.68
2023-04-14T01:52:32.508Z,5.97
2023-04-14T01:55:05.809Z,6.45
2023-04-14T01:57:36.947Z,6.64
2023-04-14T02:00:08.882Z,6.62
2023-04-14T02:02:45.364Z,6.68
2023-04-14T02:05:14.471Z,6.86
2023-04-14T02:07:46.995Z,6.07
2023-04-14T02:10:17.251Z,6.07
2023-04-14T02:12:48.337Z,6.51
2023-04-14T02:15:18.755Z,6.78
2023-04-14T02:17:50.421Z,6.31
2023-04-14T02:20:19.783Z,5.84
2023-04-14T02:22:48.993Z,5.86
2023-04-14T02:25:17.413Z,6.10
2023-04-14T02:27:51.095Z,6.51
2023-04-14T02:30:25.762Z,6.70
2023-04-14T02:32:58.856Z,6.49
2023-04-14T02:35:29.376Z,6.28
2023-04-14T02:38:08.286Z,6.43
2023-04-14T02:40:40.348Z,6.56
2023-04-14T02:43:14.922Z,6.48
2023-04-14T02:45:49.040Z,6.68
2023-04-14T02:48:24.878Z,6.68
2023-04-14T02:50:55.912Z,6.74
2023-04-14T02:53:27.933Z,6.68
2023-04-14T02:56:09.244Z,6.52
2023-04-14T02:58:41.864Z,6.24
2023-04-14T03:01:10.923Z,6.09
2023-04-14T03:03:40.632Z,6.26
2023-04-14T03:06:15.522Z,6.46
2023-04-14T03:08:45.048Z,6.55
2023-04-14T03:11:15.556Z,6.63
2023-04-14T03:13:46.100Z,6.64
2023-04-14T03:16:15.114Z,6.53
2023-04-14T03:18:45.367Z,6.52
2023-04-14T03:21:16.656Z,6.49
2023-04-14T03:23:46.113Z,6.48
2023-04-14T03:26:19.392Z,6.52
2023-04-14T03:28:48.654Z,6.55
2023-04-14T03:31:19.685Z,6.28
2023-04-14T03:33:57.335Z,6.36
2023-04-14T03:36:33.022Z,6.24
2023-04-14T03:39:03.425Z,6.38
2023-04-14T03:41:37.814Z,6.48
2023-04-14T03:44:10.809Z,6.49
2023-04-14T03:46:38.770Z,6.45
2023-04-14T03:49:11.382Z,6.43
2023-04-14T03:51:42.793Z,6.57
2023-04-14T03:54:12.627Z,6.58
2023-04-14T03:56:41.377Z,6.69
2023-04-14T03:59:15.375Z,6.73
2023-04-14T04:01:46.754Z,6.59
2023-04-14T04:04:16.804Z,6.19
2023-04-14T04:06:45.085Z,5.94
2023-04-14T04:09:15.860Z,5.89
2023-04-14T04:11:47.894Z,5.90
2023-04-14T04:14:19.981Z,6.10
2023-04-14T04:16:49.604Z,6.13
2023-04-14T04:19:21.764Z,6.05
2023-04-14T04:21:52.610Z,6.04
2023-04-14T04:24:24.482Z,6.16
2023-04-14T04:26:54.377Z,6.12
2023-04-14T04:29:23.586Z,6.25
2023-04-14T04:31:53.831Z,6.16
2023-04-14T04:34:26.302Z,6.29
2023-04-14T04:36:55.438Z,6.30
2023-04-14T04:39:23.249Z,6.24
2023-04-14T04:41:51.989Z,6.17
2023-04-14T04:44:20.648Z,6.12
2023-04-14T04:46:54.272Z,6.15
2023-04-14T04:49:27.753Z,6.11
2023-04-14T04:51:57.585Z,5.31
2023-04-14T04:54:27.100Z,5.61
2023-04-14T04:56:55.289Z,5.77
2023-04-14T04:59:23.127Z,5.44
2023-04-14T05:01:51.258Z,5.39
2023-04-14T05:04:19.553Z,5.50
2023-04-14T05:06:49.043Z,5.46
2023-04-14T05:09:17.050Z,5.50
2023-04-14T05:11:45.174Z,5.79
2023-04-14T05:14:13.037Z,5.70
2023-04-14T05:16:41.007Z,5.77
2023-04-14T05:19:08.850Z,5.51
2023-04-14T05:21:36.814Z,5.49
2023-04-14T05:24:09.382Z,5.82
2023-04-14T05:26:57.770Z,5.24
2023-04-14T05:29:25.419Z,5.53
2023-04-14T05:31:53.473Z,5.90
2023-04-14T05:34:22.531Z,6.16
2023-04-14T05:36:50.881Z,6.29
2023-04-14T05:39:20.244Z,6.48
2023-04-14T05:41:48.209Z,6.72
2023-04-14T05:44:16.190Z,6.78
2023-04-14T05:46:44.088Z,6.89
2023-04-14T05:49:12.220Z,7.04
2023-04-14T05:51:40.735Z,7.20
2023-04-14T05:54:08.569Z,7.34
2023-04-14T05:56:38.331Z,7.51
2023-04-14T05:59:06.233Z,7.69
2023-04-14T06:01:34.510Z,7.82
2023-04-14T06:04:05.106Z,8.04
2023-04-14T06:06:33.540Z,8.28
2023-04-14T06:09:01.771Z,8.44
2023-04-14T06:11:29.884Z,8.60
2023-04-14T06:14:01.240Z,8.37
2023-04-14T06:16:29.255Z,8.62
2023-04-14T06:18:57.179Z,8.64
2023-04-14T06:21:27.324Z,8.74
2023-04-14T06:23:55.350Z,8.78
2023-04-14T06:26:23.329Z,8.87
2023-04-14T06:28:51.234Z,8.77
2023-04-14T06:31:20.880Z,8.76
2023-04-14T06:33:48.827Z,8.69
2023-04-14T06:36:18.196Z,8.81
2023-04-14T06:38:46.191Z,8.90
2023-04-14T06:41:14.204Z,8.67
2023-04-14T06:43:42.842Z,8.64
2023-04-14T06:46:10.958Z,8.94
2023-04-14T06:48:40.239Z,9.32
2023-04-14T06:51:10.592Z,9.32
2023-04-14T06:53:39.542Z,9.18
2023-04-14T06:56:08.411Z,9.29
2023-04-14T06:58:36.724Z,9.18
2023-04-14T07:01:05.256Z,9.52
2023-04-14T07:03:34.543Z,9.53
2023-04-14T07:06:09.231Z,9.91
2023-04-14T07:08:37.827Z,9.96
2023-04-14T07:11:08.635Z,10.02
2023-04-14T07:13:36.726Z,10.32
2023-04-14T07:16:06.383Z,10.43
2023-04-14T07:18:35.206Z,10.67
2023-04-14T07:21:04.139Z,10.99
2023-04-14T07:23:35.772Z,10.92
2023-04-14T07:26:09.468Z,11.13
2023-04-14T07:28:38.339Z,11.21
2023-04-14T07:31:11.903Z,11.27
2023-04-14T07:33:40.801Z,11.68
2023-04-14T07:36:11.601Z,11.90
2023-04-14T07:38:49.634Z,11.46
2023-04-14T07:41:38.642Z,10.97
2023-04-14T07:44:25.039Z,11.44
2023-04-14T07:46:59.903Z,11.64
2023-04-14T07:49:35.113Z,11.79
2023-04-14T07:52:04.767Z,11.52
2023-04-14T07:54:36.106Z,11.98
2023-04-14T07:57:04.538Z,12.53
2023-04-14T07:59:35.992Z,12.71
2023-04-14T08:02:15.770Z,12.63
2023-04-14T08:05:13.505Z,12.37
2023-04-14T08:07:43.221Z,13.29
2023-04-14T08:10:14.188Z,12.76
2023-04-14T08:12:45.805Z,13.32
2023-04-14T08:15:20.487Z,13.01
2023-04-14T08:17:52.666Z,13.68
2023-04-14T08:20:23.242Z,12.81
2023-04-14T08:22:52.169Z,13.68
2023-04-14T08:25:22.330Z,13.48
2023-04-14T08:27:51.338Z,14.67
2023-04-14T08:30:23.715Z,15.33
2023-04-14T08:32:53.306Z,15.12
2023-04-14T08:35:37.566Z,15.66
2023-04-14T08:38:09.505Z,15.37
2023-04-14T08:40:41.029Z,15.15
2023-04-14T08:43:13.837Z,15.00
2023-04-14T08:45:44.645Z,15.78
2023-04-14T08:48:17.161Z,16.47
2023-04-14T08:50:56.810Z,15.71
2023-04-14T08:53:27.538Z,15.60
2023-04-14T08:55:59.788Z,14.03
2023-04-14T08:58:28.251Z,13.82
2023-04-14T09:00:59.176Z,15.73
2023-04-14T09:03:29.661Z,14.65
2023-04-14T09:06:01.941Z,16.51
2023-04-14T09:08:34.200Z,16.74
2023-04-14T09:11:05.807Z,16.95
2023-04-14T09:13:36.045Z,16.64
2023-04-14T09:16:06.613Z,16.60
2023-04-14T09:18:36.541Z,16.78
2023-04-14T09:21:30.313Z,16.05
2023-04-14T09:23:56.056Z,16.61
2023-04-14T09:26:26.990Z,17.87
2023-04-14T09:28:54.856Z,16.63
2023-04-14T09:31:24.090Z,15.92
2023-04-14T09:33:53.584Z,15.06
2023-04-14T09:36:23.676Z,14.87
2023-04-14T09:38:53.461Z,14.60
2023-04-14T09:41:23.943Z,17.20
2023-04-14T09:43:54.878Z,16.89
2023-04-14T09:46:23.064Z,17.03
2023-04-14T09:48:52.562Z,17.47
2023-04-14T09:51:23.971Z,17.70
2023-04-14T09:53:56.000Z,17.37
2023-04-14T09:56:29.326Z,18.22
2023-04-14T09:59:01.089Z,15.98
2023-04-14T10:01:32.043Z,16.88
2023-04-14T10:04:01.623Z,15.43
2023-04-14T10:06:31.294Z,15.37
2023-04-14T10:09:00.157Z,15.91
2023-04-14T10:11:35.169Z,14.25
2023-04-14T10:14:06.370Z,14.80
2023-04-14T10:16:35.173Z,16.22
2023-04-14T10:19:03.832Z,17.05
2023-04-14T10:21:32.808Z,15.69
2023-04-14T10:24:01.725Z,17.32
2023-04-14T10:26:30.100Z,18.45
2023-04-14T10:28:58.184Z,18.05
2023-04-14T10:31:33.863Z,16.42
2023-04-14T10:34:08.645Z,15.72
2023-04-14T10:36:37.246Z,15.91
2023-04-14T10:39:07.099Z,14.97
2023-04-14T10:41:47.437Z,15.90
2023-04-14T10:44:27.187Z,15.91
2023-04-14T10:46:57.996Z,17.13
2023-04-14T10:49:31.712Z,16.72
2023-04-14T10:52:02.074Z,17.67
2023-04-14T10:54:48.953Z,16.37
2023-04-14T10:57:18.564Z,17.83
2023-04-14T10:59:47.477Z,17.24
2023-04-14T11:02:28.093Z,16.89
2023-04-14T11:05:06.095Z,17.54
2023-04-14T11:07:40.306Z,16.12
2023-04-14T11:10:29.781Z,17.42
2023-04-14T11:13:04.209Z,16.85
2023-04-14T11:15:48.291Z,17.12
2023-04-14T11:18:18.940Z,17.96
2023-04-14T11:20:47.298Z,17.23
2023-04-14T11:23:16.499Z,16.67
2023-04-14T11:25:45.671Z,15.85
2023-04-14T11:28:13.682Z,15.55
2023-04-14T11:30:43.056Z,14.73
2023-04-14T11:33:11.115Z,15.87
2023-04-14T11:35:44.475Z,16.74
2023-04-14T11:38:16.184Z,16.06
2023-04-14T11:40:50.993Z,16.58
2023-04-14T11:43:21.456Z,16.87
2023-04-14T11:45:52.711Z,17.89
2023-04-14T11:48:22.043Z,16.64
2023-04-14T11:50:53.080Z,17.54
2023-04-14T11:53:21.977Z,17.94
2023-04-14T11:55:51.979Z,17.14
2023-04-14T11:58:23.746Z,16.88
2023-04-14T12:00:54.328Z,17.86
2023-04-14T12:03:28.579Z,16.28
2023-04-14T12:06:00.677Z,15.84
2023-04-14T12:08:31.517Z,14.60
2023-04-14T12:11:00.090Z,16.24
2023-04-14T12:13:29.294Z,15.79
2023-04-14T12:15:58.675Z,16.19
2023-04-14T12:18:30.202Z,16.74
2023-04-14T12:21:03.977Z,17.22
2023-04-14T12:23:36.154Z,18.42
2023-04-14T12:26:04.478Z,19.37
2023-04-14T12:28:34.915Z,19.31
2023-04-14T12:31:04.981Z,19.45
2023-04-14T12:33:33.978Z,19.75
2023-04-14T12:36:08.193Z,19.64
2023-04-14T12:38:37.497Z,18.99
2023-04-14T12:41:06.243Z,18.85
2023-04-14T12:43:36.182Z,17.68
2023-04-14T12:46:06.359Z,16.76
2023-04-14T12:48:43.960Z,16.88
2023-04-14T12:51:17.506Z,17.91
2023-04-14T12:53:48.093Z,17.51
2023-04-14T12:56:19.444Z,17.00
2023-04-14T12:58:49.539Z,16.53
2023-04-14T13:01:19.325Z,17.77
2023-04-14T13:03:50.393Z,18.48
2023-04-14T13:06:22.020Z,18.70
2023-04-14T13:08:56.373Z,19.27
2023-04-14T13:11:26.427Z,18.66
2023-04-14T13:13:54.918Z,17.87
2023-04-14T13:16:26.978Z,16.50
2023-04-14T13:18:55.608Z,16.53
2023-04-14T13:21:24.905Z,16.33
2023-04-14T13:23:52.953Z,15.94
2023-04-14T13:26:20.828Z,16.68
2023-04-14T13:28:50.429Z,15.34
2023-04-14T13:31:19.160Z,16.50
2023-04-14T13:33:47.220Z,16.41
2023-04-14T13:36:15.151Z,16.83
2023-04-14T13:38:44.497Z,16.71
2023-04-14T13:41:15.160Z,16.64
2023-04-14T13:43:43.131Z,17.60
2023-04-14T13:46:11.343Z,17.31
2023-04-14T13:48:39.304Z,18.09
2023-04-14T13:51:07.429Z,17.19
2023-04-14T13:53:35.312Z,17.73
2023-04-14T13:56:04.927Z,17.41
2023-04-14T13:58:32.939Z,17.93
2023-04-14T14:01:10.436Z,17.02
2023-04-14T14:03:42.154Z,16.80
2023-04-14T14:06:10.512Z,17.61
2023-04-14T14:08:39.359Z,17.13
2023-04-14T14:11:09.404Z,17.34
2023-04-14T14:13:40.072Z,17.39
2023-04-14T14:16:09.535Z,16.83
2023-04-14T14:18:40.786Z,16.82
2023-04-14T14:21:09.433Z,15.96
2023-04-14T14:23:37.411Z,16.20
2023-04-14T14:26:07.438Z,16.42
2023-04-14T14:28:36.656Z,16.36
2023-04-14T14:31:07.548Z,16.41
2023-04-14T14:33:35.469Z,16.36
2023-04-14T14:36:03.946Z,16.64
2023-04-14T14:38:32.621Z,17.20
2023-04-14T14:41:01.224Z,17.17
2023-04-14T14:43:29.105Z,17.75
2023-04-14T14:45:58.624Z,17.36
2023-04-14T14:48:26.727Z,16.97
2023-04-14T14:50:57.203Z,17.15
2023-04-14T14:53:26.898Z,16.58
2023-04-14T14:55:55.781Z,16.15
2023-04-14T14:58:29.911Z,16.86
2023-04-14T15:01:08.829Z,17.30
2023-04-14T15:03:38.625Z,16.69
2023-04-14T15:06:08.367Z,16.66
2023-04-14T15:08:36.900Z,16.81
2023-04-14T15:11:05.506Z,16.85
2023-04-14T15:13:35.311Z,16.93
2023-04-14T15:16:05.150Z,17.33
2023-04-14T15:18:35.779Z,17.40
2023-04-14T15:21:06.566Z,17.10
2023-04-14T15:23:44.858Z,17.34
2023-04-14T15:26:19.862Z,16.84
2023-04-14T15:28:49.532Z,16.11
2023-04-14T15:31:21.805Z,16.11
2023-04-14T15:33:55.839Z,16.47
2023-04-14T15:36:24.453Z,16.02
2023-04-14T15:38:54.161Z,16.70
2023-04-14T15:41:25.068Z,16.26
2023-04-14T15:44:14.863Z,16.62
2023-04-14T15:46:53.506Z,16.72
2023-04-14T15:49:29.268Z,16.45
2023-04-14T15:52:16.926Z,16.30
2023-04-14T15:54:51.663Z,16.27
2023-04-14T15:57:49.269Z,16.28
2023-04-14T16:00:25.266Z,16.52
2023-04-14T16:03:07.658Z,16.92
2023-04-14T16:05:51.829Z,16.78
2023-04-14T16:08:30.916Z,17.16
2023-04-14T16:11:34.747Z,16.69
2023-04-14T16:14:19.380Z,16.64
2023-04-14T16:16:52.981Z,16.50
2023-04-14T16:19:41.827Z,16.71
2023-04-14T16:22:14.102Z,16.60
2023-04-14T16:24:47.623Z,16.17
2023-04-14T16:27:17.776Z,16.14
2023-04-14T16:29:48.003Z,16.68
2023-04-14T16:32:26.939Z,16.22
2023-04-14T16:35:20.312Z,16.46
2023-04-14T16:38:08.430Z,16.01
2023-04-14T16:40:37.265Z,16.10
2023-04-14T16:43:05.957Z,15.91
2023-04-14T16:45:34.831Z,16.32
2023-04-14T16:48:02.975Z,16.45
2023-04-14T16:50:32.199Z,16.13
2023-04-14T16:53:00.122Z,15.39
2023-04-14T16:55:33.772Z,15.00
2023-04-14T16:58:01.967Z,15.18
2023-04-14T17:00:30.569Z,15.59
2023-04-14T17:02:58.758Z,15.76
2023-04-14T17:05:27.292Z,15.71
2023-04-14T17:07:55.372Z,15.25
2023-04-14T17:10:23.451Z,15.32
2023-04-14T17:12:54.046Z,15.36
2023-04-14T17:15:22.050Z,15.42
2023-04-14T17:17:51.250Z,15.39
2023-04-14T17:20:21.017Z,15.32
2023-04-14T17:22:51.810Z,15.21
2023-04-14T17:25:20.983Z,15.22
2023-04-14T17:27:49.030Z,14.94
2023-04-14T17:30:18.617Z,14.85
2023-04-14T17:32:50.325Z,15.18
2023-04-14T17:35:23.772Z,15.15
2023-04-14T17:38:14.339Z,15.16
2023-04-14T17:41:01.570Z,15.13
2023-04-14T17:43:40.502Z,15.06
2023-04-14T17:46:35.412Z,15.11
2023-04-14T17:49:18.933Z,15.18
2023-04-14T17:52:10.303Z,14.99
2023-04-14T17:54:52.345Z,15.00
2023-04-14T17:57:27.350Z,14.82
2023-04-14T18:00:02.011Z,14.18
2023-04-14T18:02:59.622Z,14.44
2023-04-14T18:05:51.237Z,14.34
2023-04-14T18:08:32.355Z,14.30
2023-04-14T18:11:29.009Z,14.09
2023-04-14T18:13:59.658Z,13.80
2023-04-14T18:16:29.527Z,13.62
2023-04-14T18:19:19.459Z,13.28
2023-04-14T18:22:12.872Z,13.51
2023-04-14T18:24:48.570Z,13.38
2023-04-14T18:29:51.333Z,12.27
2023-04-14T18:32:19.548Z,12.35
2023-04-14T18:34:57.756Z,12.28
2023-04-14T18:37:27.847Z,12.04
2023-04-14T18:39:56.700Z,12.21
2023-04-14T18:42:24.785Z,12.18
2023-04-14T18:44:53.809Z,12.10
2023-04-14T18:47:22.290Z,12.01
2023-04-14T18:49:51.803Z,11.84
2023-04-14T18:52:19.965Z,12.25
2023-04-14T18:54:48.181Z,12.31
2023-04-14T18:57:16.251Z,12.38
2023-04-14T18:59:44.595Z,12.31
2023-04-14T19:02:13.775Z,12.31
2023-04-14T19:04:42.088Z,12.17
2023-04-14T19:07:11.484Z,12.07
2023-04-14T19:09:39.676Z,12.06
2023-04-14T19:12:12.953Z,11.97
2023-04-14T19:14:53.203Z,12.04
2023-04-14T19:17:21.225Z,11.60
2023-04-14T19:19:53.419Z,11.63
2023-04-14T19:22:22.717Z,11.87
2023-04-14T19:24:51.141Z,11.87
2023-04-14T19:27:19.342Z,11.81
2023-04-14T19:29:47.274Z,11.77
2023-04-14T19:32:17.923Z,11.68
2023-04-14T19:34:46.428Z,11.45
2023-04-14T19:37:15.151Z,11.35
2023-04-14T19:39:45.339Z,11.42
2023-04-14T19:42:13.474Z,11.41
2023-04-14T19:44:44.823Z,10.80
2023-04-14T19:47:13.217Z,11.11
2023-04-14T19:49:43.480Z,11.19
2023-04-14T19:52:12.097Z,11.20
2023-04-14T19:54:40.258Z,11.22
2023-04-14T19:57:10.251Z,11.34
2023-04-14T19:59:38.205Z,11.24
2023-04-14T20:02:10.553Z,10.81
2023-04-14T20:04:38.717Z,10.77
2023-04-14T20:07:07.466Z,10.94
2023-04-14T20:09:36.109Z,11.04
2023-04-14T20:12:06.636Z,10.95
2023-04-14T20:14:35.834Z,10.73
2023-04-14T20:17:04.027Z,10.47
2023-04-14T20:19:33.069Z,10.72
2023-04-14T20:22:01.157Z,10.91
2023-04-14T20:24:29.388Z,10.38
2023-04-14T20:26:57.354Z,10.26
2023-04-14T20:29:25.374Z,10.59
2023-04-14T20:31:54.626Z,10.54
2023-04-14T20:34:22.538Z,10.27
2023-04-14T20:36:52.973Z,10.04
2023-04-14T20:39:20.878Z,10.11
2023-04-14T20:41:48.724Z,10.08
2023-04-14T20:44:17.113Z,10.05
2023-04-14T20:46:45.174Z,10.04
2023-04-14T20:49:14.453Z,9.73
2023-04-14T20:51:42.357Z,9.79
2023-04-14T20:54:10.446Z,9.76
2023-04-14T20:56:38.321Z,9.47
2023-04-14T20:59:06.356Z,9.69
2023-04-14T21:01:34.388Z,9.70
2023-04-14T21:04:02.612Z,9.70
2023-04-14T21:06:33.122Z,9.55
2023-04-14T21:09:02.067Z,9.40
2023-04-14T21:11:31.871Z,9.31
2023-04-14T21:15:31.116Z,9.25
2023-04-14T21:16:48.564Z,9.31
2023-04-14T21:19:16.449Z,9.30
2023-04-14T21:21:45.855Z,9.06
2023-04-14T21:24:16.013Z,9.25
2023-04-14T21:26:43.916Z,9.28
2023-04-14T21:29:11.875Z,9.41
2023-04-14T21:31:40.123Z,9.47
2023-04-14T21:34:08.117Z,9.33
2023-04-14T21:36:36.258Z,9.40
2023-04-14T21:39:05.648Z,9.27
2023-04-14T21:41:33.848Z,9.32
2023-04-14T21:44:01.898Z,9.39
2023-04-14T21:46:30.454Z,9.39
2023-04-14T21:48:58.395Z,9.12
2023-04-14T21:51:27.582Z,9.14
2023-04-14T21:53:55.852Z,9.23
2023-04-14T21:56:25.041Z,9.28
2023-04-14T21:58:52.944Z,9.10
2023-04-14T22:01:20.920Z,9.07
2023-04-14T22:03:49.954Z,8.98
2023-04-14T22:06:19.226Z,8.78
2023-04-14T22:08:47.187Z,8.74
2023-04-14T22:11:15.117Z,8.41
2023-04-14T22:13:44.628Z,8.65
2023-04-14T22:16:12.482Z,8.80
2023-04-14T22:18:42.964Z,8.75
2023-04-14T22:21:12.066Z,8.61
2023-04-14T22:23:40.593Z,8.42
2023-04-14T22:26:09.026Z,8.29
2023-04-14T22:28:37.130Z,8.29
2023-04-14T22:31:07.900Z,8.32
2023-04-14T22:33:36.069Z,8.38
2023-04-14T22:36:06.181Z,8.27
2023-04-14T22:38:34.747Z,8.38
2023-04-14T22:41:02.774Z,8.29
2023-04-14T22:43:30.854Z,8.21
2023-04-14T22:45:58.782Z,8.19
2023-04-14T22:48:28.096Z,8.22
2023-04-14T22:50:56.176Z,8.25
2023-04-14T22:53:24.056Z,8.49
2023-04-14T22:55:52.028Z,8.43
2023-04-14T22:58:21.811Z,8.29
2023-04-14T23:00:49.674Z,7.66
2023-04-14T23:03:17.654Z,7.76
2023-04-14T23:05:47.129Z,7.99
2023-04-14T23:08:15.648Z,8.24
2023-04-14T23:10:43.605Z,7.97
2023-04-14T23:13:11.555Z,8.12
2023-04-14T23:15:39.507Z,8.04
2023-04-14T23:18:07.477Z,8.11
2023-04-14T23:20:35.361Z,8.17
2023-04-14T23:23:12.005Z,8.15
2023-04-14T23:25:40.067Z,8.06
2023-04-14T23:28:08.301Z,7.91
2023-04-14T23:30:36.803Z,7.77
2023-04-14T23:33:04.781Z,7.36
2023-04-14T23:35:32.809Z,7.39
2023-04-14T23:38:02.438Z,6.78
2023-04-14T23:40:32.728Z,6.82
2023-04-14T23:43:01.229Z,6.62
2023-04-14T23:45:34.053Z,7.06
2023-04-14T23:48:02.025Z,6.34
2023-04-14T23:51:00.342Z,6.74
2023-04-14T23:53:18.103Z,7.04
2023-04-14T23:55:48.069Z,7.21
2023-04-14T23:58:26.183Z,7.36
